createdAt,value
2018-10-01T00:02:29.067Z,2.60
2018-10-01T00:05:08.227Z,2.33
2018-10-01T00:07:45.084Z,2.07
2018-10-01T00:10:22.699Z,2.17
2018-10-01T00:13:00.718Z,2.43
2018-10-01T00:15:37.593Z,2.40
2018-10-01T00:18:14.910Z,2.57
2018-10-01T00:20:56.010Z,2.45
2018-10-01T00:23:33.698Z,2.70
2018-10-01T00:26:11.353Z,2.50
2018-10-01T00:28:48.979Z,2.33
2018-10-01T00:31:25.956Z,2.50
2018-10-01T00:34:02.072Z,1.93
2018-10-01T00:36:40.525Z,1.70
2018-10-01T00:39:10.941Z,2.53
2018-10-01T00:41:41.202Z,2.47
2018-10-01T00:44:10.817Z,2.05
2018-10-01T00:46:40.462Z,2.40
2018-10-01T00:49:10.080Z,2.03
2018-10-01T00:51:39.701Z,2.77
2018-10-01T00:54:09.291Z,2.30
2018-10-01T00:56:39.012Z,2.33
2018-10-01T00:59:09.765Z,2.07
2018-10-01T01:01:41.146Z,2.07
2018-10-01T01:04:10.774Z,1.90
2018-10-01T01:06:40.478Z,1.90
2018-10-01T01:09:10.335Z,2.70
2018-10-01T01:11:39.944Z,2.23
2018-10-01T01:14:09.600Z,2.03
2018-10-01T01:16:39.191Z,2.20
2018-10-01T01:19:08.811Z,2.30
2018-10-01T01:21:38.457Z,2.30
2018-10-01T01:24:08.621Z,2.20
2018-10-01T01:26:38.254Z,2.30
2018-10-01T01:29:07.939Z,2.20
2018-10-01T01:31:37.617Z,2.40
2018-10-01T01:34:07.262Z,2.27
2018-10-01T01:36:36.943Z,2.40
2018-10-01T01:39:10.124Z,2.27
2018-10-01T01:41:39.851Z,1.73
2018-10-01T01:44:09.476Z,2.77
2018-10-01T01:46:39.064Z,1.90
2018-10-01T01:49:08.663Z,2.10
2018-10-01T01:51:38.334Z,1.87
2018-10-01T01:54:07.918Z,2.20
2018-10-01T01:56:37.646Z,2.03
2018-10-01T01:59:07.504Z,1.90
2018-10-01T02:01:38.066Z,2.00
2018-10-01T02:04:07.967Z,2.60
2018-10-01T02:06:37.898Z,2.20
2018-10-01T02:09:10.762Z,2.00
2018-10-01T02:11:40.694Z,2.10
2018-10-01T02:14:10.773Z,2.30
2018-10-01T02:16:40.451Z,2.67
2018-10-01T02:19:10.285Z,1.90
2018-10-01T02:21:40.155Z,2.07
2018-10-01T02:24:10.059Z,2.50
2018-10-01T02:26:39.875Z,2.17
2018-10-01T02:29:09.782Z,1.80
2018-10-01T02:31:39.561Z,2.02
2018-10-01T02:34:09.377Z,1.93
2018-10-01T02:36:39.129Z,2.10
2018-10-01T02:39:12.047Z,2.20
2018-10-01T02:41:41.767Z,1.73
2018-10-01T02:44:11.454Z,1.32
2018-10-01T02:46:41.070Z,2.10
2018-10-01T02:49:10.807Z,1.98
2018-10-01T02:51:45.533Z,1.72
2018-10-01T02:54:20.270Z,2.10
2018-10-01T02:56:49.841Z,1.67
2018-10-01T02:59:19.473Z,1.80
2018-10-01T03:01:49.082Z,2.10
2018-10-01T03:04:18.802Z,1.57
2018-10-01T03:06:48.482Z,2.00
2018-10-01T03:09:18.103Z,1.90
2018-10-01T03:11:47.827Z,1.70
2018-10-01T03:14:17.556Z,2.00
2018-10-01T03:16:47.478Z,1.80
2018-10-01T03:19:17.113Z,1.87
2018-10-01T03:21:46.866Z,1.60
2018-10-01T03:24:17.577Z,1.75
2018-10-01T03:26:47.339Z,1.40
2018-10-01T03:29:18.029Z,1.50
2018-10-01T03:31:47.836Z,1.73
2018-10-01T03:34:17.521Z,1.60
2018-10-01T03:36:47.379Z,1.57
2018-10-01T03:39:17.541Z,1.62
2018-10-01T03:41:47.487Z,2.80
2018-10-01T03:44:17.379Z,1.83
2018-10-01T03:46:47.142Z,1.40
2018-10-01T03:49:16.910Z,1.98
2018-10-01T03:51:46.863Z,2.00
2018-10-01T03:54:16.555Z,2.05
2018-10-01T03:56:46.386Z,1.57
2018-10-01T03:59:16.135Z,1.93
2018-10-01T04:01:46.048Z,1.97
2018-10-01T04:04:15.820Z,1.60
2018-10-01T04:06:45.736Z,1.40
2018-10-01T04:09:15.694Z,1.70
2018-10-01T04:11:45.474Z,1.70
2018-10-01T04:14:15.314Z,1.70
2018-10-01T04:16:45.110Z,1.63
2018-10-01T04:19:14.941Z,1.63
2018-10-01T04:21:44.745Z,1.32
2018-10-01T04:24:14.646Z,1.70
2018-10-01T04:26:45.150Z,1.90
2018-10-01T04:29:15.584Z,1.57
2018-10-01T04:31:46.235Z,1.70
2018-10-01T04:34:16.379Z,1.83
2018-10-01T04:36:46.454Z,1.60
2018-10-01T04:39:16.474Z,1.50
2018-10-01T04:41:46.385Z,1.83
2018-10-01T04:44:16.197Z,2.03
2018-10-01T04:46:46.242Z,1.97
2018-10-01T04:49:16.164Z,2.00
2018-10-01T04:51:46.342Z,1.70
2018-10-01T04:54:16.084Z,1.80
2018-10-01T04:56:45.953Z,2.30
2018-10-01T04:59:15.646Z,1.77
2018-10-01T05:01:45.274Z,2.00
2018-10-01T05:04:15.023Z,1.72
2018-10-01T05:06:44.790Z,1.73
2018-10-01T05:09:14.690Z,1.95
2018-10-01T05:11:45.050Z,2.10
2018-10-01T05:14:14.718Z,2.23
2018-10-01T05:16:44.325Z,2.20
2018-10-01T05:19:13.987Z,1.75
2018-10-01T05:21:43.727Z,2.20
2018-10-01T05:24:13.804Z,1.90
2018-10-01T05:26:43.570Z,2.10
2018-10-01T05:29:13.370Z,2.23
2018-10-01T05:31:43.151Z,2.23
2018-10-01T05:34:12.842Z,2.10
2018-10-01T05:36:42.520Z,2.10
2018-10-01T05:39:12.978Z,2.90
2018-10-01T05:41:42.665Z,1.60
2018-10-01T05:44:12.352Z,2.00
2018-10-01T05:46:41.961Z,2.40
2018-10-01T05:49:11.707Z,1.80
2018-10-01T05:51:43.745Z,2.57
2018-10-01T05:54:13.937Z,2.27
2018-10-01T05:56:43.678Z,1.97
2018-10-01T05:59:13.344Z,2.07
2018-10-01T06:01:43.425Z,1.80
2018-10-01T06:04:13.365Z,1.83
2018-10-01T06:06:43.114Z,1.80
2018-10-01T06:09:13.406Z,1.82
2018-10-01T06:11:43.330Z,2.33
2018-10-01T06:14:13.294Z,1.85
2018-10-01T06:16:43.019Z,1.30
2018-10-01T06:19:13.406Z,1.30
2018-10-01T06:21:43.253Z,2.00
2018-10-01T06:24:12.963Z,1.77
2018-10-01T06:26:42.605Z,1.42
2018-10-01T06:29:12.286Z,1.30
2018-10-01T06:31:42.082Z,1.50
2018-10-01T06:34:11.720Z,1.20
2018-10-01T06:36:41.503Z,1.53
2018-10-01T06:39:12.067Z,1.60
2018-10-01T06:41:41.777Z,1.97
2018-10-01T06:44:12.605Z,1.77
2018-10-01T06:46:42.317Z,1.97
2018-10-01T06:49:12.136Z,1.80
2018-10-01T06:51:41.850Z,1.90
2018-10-01T06:54:11.427Z,1.70
2018-10-01T06:56:41.177Z,1.70
2018-10-01T06:59:10.864Z,2.10
2018-10-01T07:01:40.641Z,1.73
2018-10-01T07:04:10.459Z,2.33
2018-10-01T07:06:40.085Z,2.00
2018-10-01T07:09:11.075Z,1.90
2018-10-01T07:11:41.379Z,2.03
2018-10-01T07:14:10.979Z,2.40
2018-10-01T07:16:40.612Z,1.77
2018-10-01T07:19:10.303Z,1.90
2018-10-01T07:21:39.945Z,1.77
2018-10-01T07:24:09.785Z,1.30
2018-10-01T07:26:39.501Z,1.60
2018-10-01T07:29:09.153Z,1.30
2018-10-01T07:31:38.816Z,1.27
2018-10-01T07:34:08.810Z,1.60
2018-10-01T07:36:38.443Z,3.00
2018-10-01T07:39:09.058Z,6.77
2018-10-01T07:41:38.905Z,8.33
2018-10-01T07:44:10.213Z,7.87
2018-10-01T07:46:39.798Z,6.77
2018-10-01T07:49:09.414Z,4.60
2018-10-01T07:51:39.811Z,3.07
2018-10-01T07:54:09.710Z,2.27
2018-10-01T07:56:39.380Z,2.37
2018-10-01T07:59:08.996Z,1.62
2018-10-01T08:01:38.741Z,1.20
2018-10-01T08:04:08.671Z,1.35
2018-10-01T08:06:38.278Z,1.60
2018-10-01T08:09:10.095Z,1.90
2018-10-01T08:11:39.971Z,1.63
2018-10-01T08:14:09.710Z,1.93
2018-10-01T08:16:39.693Z,1.90
2018-10-01T08:19:09.444Z,1.53
2018-10-01T08:21:39.134Z,1.50
2018-10-01T08:24:08.757Z,1.60
2018-10-01T08:26:39.393Z,1.67
2018-10-01T08:29:09.034Z,1.37
2018-10-01T08:31:38.596Z,1.43
2018-10-01T08:34:08.410Z,1.13
2018-10-01T08:36:38.083Z,1.10
2018-10-01T08:39:13.653Z,1.20
2018-10-01T08:41:43.535Z,1.20
2018-10-01T08:44:13.712Z,1.00
2018-10-01T08:46:43.445Z,1.50
2018-10-01T08:49:21.356Z,1.17
2018-10-01T08:51:56.321Z,1.47
2018-10-01T08:54:32.305Z,2.27
2018-10-01T08:57:02.128Z,1.10
2018-10-01T08:59:32.312Z,1.50
2018-10-01T09:02:03.386Z,1.97
2018-10-01T09:04:34.567Z,1.90
2018-10-01T09:07:04.292Z,1.73
2018-10-01T09:09:34.240Z,2.20
2018-10-01T09:12:04.444Z,1.50
2018-10-01T09:14:35.894Z,1.63
2018-10-01T09:17:07.115Z,1.50
2018-10-01T09:19:36.707Z,2.70
2018-10-01T09:22:06.736Z,2.00
2018-10-01T09:24:36.470Z,2.17
2018-10-01T09:27:06.809Z,2.17
2018-10-01T09:29:36.598Z,2.50
2018-10-01T09:32:07.245Z,2.30
2018-10-01T09:34:36.882Z,1.70
2018-10-01T09:37:06.768Z,2.00
2018-10-01T09:39:36.720Z,1.90
2018-10-01T09:42:07.809Z,1.72
2018-10-01T09:44:37.503Z,1.70
2018-10-01T09:47:07.215Z,3.17
2018-10-01T09:49:37.005Z,1.98
2018-10-01T09:52:06.946Z,3.02
2018-10-01T09:54:36.684Z,2.20
2018-10-01T09:57:06.265Z,2.20
2018-10-01T09:59:35.941Z,2.00
2018-10-01T10:02:06.595Z,2.30
2018-10-01T10:04:36.307Z,2.30
2018-10-01T10:07:06.590Z,1.35
2018-10-01T10:09:36.469Z,1.93
2018-10-01T10:12:07.084Z,1.20
2018-10-01T10:14:36.897Z,1.03
2018-10-01T10:17:07.095Z,1.17
2018-10-01T10:19:36.723Z,0.90
2018-10-01T10:22:06.730Z,1.00
2018-10-01T10:24:37.121Z,1.53
2018-10-01T10:27:06.857Z,1.70
2018-10-01T10:29:36.381Z,1.40
2018-10-01T10:32:06.967Z,1.67
2018-10-01T10:34:36.710Z,1.40
2018-10-01T10:37:07.060Z,1.50
2018-10-01T10:39:37.262Z,1.50
2018-10-01T10:42:07.021Z,1.20
2018-10-01T10:44:36.683Z,1.30
2018-10-01T10:47:06.286Z,1.67
2018-10-01T10:49:35.898Z,1.33
2018-10-01T10:52:06.640Z,1.46
2018-10-01T10:54:36.558Z,1.10
2018-10-01T10:57:07.365Z,1.32
2018-10-01T10:59:37.002Z,1.20
2018-10-01T11:02:07.123Z,1.30
2018-10-01T11:04:36.737Z,1.10
2018-10-01T11:07:06.793Z,1.17
2018-10-01T11:09:36.516Z,1.00
2018-10-01T11:12:06.764Z,1.30
2018-10-01T11:14:36.459Z,1.30
2018-10-01T11:17:06.678Z,1.45
2018-10-01T11:19:36.305Z,1.70
2018-10-01T11:22:06.776Z,1.72
2018-10-01T11:24:36.401Z,1.17
2018-10-01T11:27:06.928Z,1.52
2018-10-01T11:29:36.665Z,1.10
2018-10-01T11:32:07.826Z,0.47
2018-10-01T11:34:37.574Z,0.50
2018-10-01T11:37:07.168Z,0.83
2018-10-01T11:39:36.819Z,0.50
2018-10-01T11:42:07.025Z,0.40
2018-10-01T11:44:36.830Z,0.70
2018-10-01T11:47:06.538Z,1.23
2018-10-01T11:49:36.100Z,1.00
2018-10-01T11:52:06.774Z,1.20
2018-10-01T11:54:36.328Z,1.00
2018-10-01T11:57:06.510Z,1.10
2018-10-01T11:59:36.201Z,1.40
2018-10-01T12:02:06.632Z,1.22
2018-10-01T12:04:36.227Z,0.90
2018-10-01T12:07:06.739Z,1.02
2018-10-01T12:09:36.380Z,1.00
2018-10-01T12:12:06.650Z,1.22
2018-10-01T12:14:36.307Z,0.80
2018-10-01T12:17:06.855Z,0.80
2018-10-01T12:19:36.489Z,0.67
2018-10-01T12:22:06.835Z,0.80
2018-10-01T12:24:37.793Z,0.93
2018-10-01T12:27:07.905Z,0.70
2018-10-01T12:29:38.460Z,0.70
2018-10-01T12:32:08.076Z,0.97
2018-10-01T12:34:37.650Z,1.10
2018-10-01T12:37:07.669Z,1.10
2018-10-01T12:39:37.288Z,1.23
2018-10-01T12:42:06.847Z,1.10
2018-10-01T12:44:36.443Z,1.23
2018-10-01T12:47:06.730Z,1.35
2018-10-01T12:49:36.381Z,1.37
2018-10-01T12:52:06.486Z,1.62
2018-10-01T12:54:36.107Z,1.50
2018-10-01T12:57:06.999Z,1.60
2018-10-01T12:59:36.652Z,1.33
2018-10-01T13:02:06.906Z,1.00
2018-10-01T13:04:36.457Z,1.50
2018-10-01T13:07:06.292Z,1.00
2018-10-01T13:09:35.954Z,0.63
2018-10-01T13:12:06.663Z,0.70
2018-10-01T13:14:36.268Z,0.70
2018-10-01T13:17:07.082Z,0.50
2018-10-01T13:19:36.736Z,0.60
2018-10-01T13:22:07.041Z,0.60
2018-10-01T13:24:36.725Z,0.80
2018-10-01T13:27:07.410Z,0.40
2018-10-01T13:29:37.026Z,0.50
2018-10-01T13:32:06.830Z,0.70
2018-10-01T13:34:36.444Z,0.50
2018-10-01T13:37:06.356Z,0.65
2018-10-01T13:39:36.026Z,0.47
2018-10-01T13:42:06.469Z,0.60
2018-10-01T13:44:36.146Z,0.80
2018-10-01T13:47:07.527Z,0.90
2018-10-01T13:49:37.150Z,0.70
2018-10-01T13:52:07.052Z,1.03
2018-10-01T13:54:36.643Z,1.07
2018-10-01T13:57:06.300Z,1.40
2018-10-01T13:59:35.959Z,1.20
2018-10-01T14:02:06.716Z,1.45
2018-10-01T14:04:36.209Z,1.17
2018-10-01T14:07:06.540Z,1.03
2018-10-01T14:09:36.291Z,0.83
2018-10-01T14:12:06.761Z,1.10
2018-10-01T14:14:36.374Z,1.17
2018-10-01T14:17:06.754Z,1.10
2018-10-01T14:19:36.485Z,1.30
2018-10-01T14:22:07.272Z,1.17
2018-10-01T14:24:36.900Z,1.37
2018-10-01T14:27:06.773Z,2.02
2018-10-01T14:29:36.652Z,1.57
2018-10-01T14:32:06.647Z,1.42
2018-10-01T14:34:36.306Z,1.43
2018-10-01T14:37:06.796Z,1.67
2018-10-01T14:39:36.349Z,1.33
2018-10-01T14:42:06.407Z,1.50
2018-10-01T14:44:36.226Z,1.10
2018-10-01T14:47:07.094Z,1.42
2018-10-01T14:49:36.828Z,1.63
2018-10-01T14:52:06.783Z,2.00
2018-10-01T14:54:36.435Z,1.00
2018-10-01T14:57:06.713Z,1.05
2018-10-01T14:59:36.556Z,0.90
2018-10-01T15:02:06.807Z,1.00
2018-10-01T15:04:36.590Z,0.93
2018-10-01T15:07:06.564Z,1.20
2018-10-01T15:09:36.237Z,1.13
2018-10-01T15:12:09.694Z,1.10
2018-10-01T15:14:39.484Z,1.60
2018-10-01T15:17:09.053Z,1.30
2018-10-01T15:19:38.743Z,1.37
2018-10-01T15:22:08.397Z,1.37
2018-10-01T15:24:48.654Z,1.50
2018-10-01T15:27:18.253Z,1.65
2018-10-01T15:29:47.960Z,1.57
2018-10-01T15:32:17.500Z,1.27
2018-10-01T15:34:47.799Z,1.98
2018-10-01T15:37:18.458Z,1.70
2018-10-01T15:39:48.120Z,1.67
2018-10-01T15:42:17.836Z,1.47
2018-10-01T15:44:48.248Z,1.60
2018-10-01T15:47:17.907Z,1.50
2018-10-01T15:49:47.536Z,2.00
2018-10-01T15:52:17.136Z,1.98
2018-10-01T15:54:47.076Z,2.10
2018-10-01T15:57:16.827Z,1.75
2018-10-01T15:59:46.550Z,1.52
2018-10-01T16:02:16.764Z,1.70
2018-10-01T16:04:54.341Z,1.30
2018-10-01T16:07:24.018Z,1.52
2018-10-01T16:09:53.951Z,1.20
2018-10-01T16:12:23.994Z,1.37
2018-10-01T16:14:53.684Z,1.47
2018-10-01T16:17:23.406Z,1.80
2018-10-01T16:19:53.929Z,1.57
2018-10-01T16:22:23.733Z,1.30
2018-10-01T16:24:53.471Z,1.57
2018-10-01T16:27:23.423Z,1.65
2018-10-01T16:29:53.478Z,1.50
2018-10-01T16:32:23.031Z,1.00
2018-10-01T16:34:52.755Z,1.60
2018-10-01T16:37:22.658Z,1.30
2018-10-01T16:39:52.281Z,1.60
2018-10-01T16:42:22.068Z,1.57
2018-10-01T16:44:51.663Z,1.33
2018-10-01T16:47:21.323Z,1.65
2018-10-01T16:49:50.902Z,1.53
2018-10-01T16:52:21.459Z,1.60
2018-10-01T16:54:51.534Z,1.30
2018-10-01T16:57:21.267Z,1.62
2018-10-01T16:59:50.926Z,1.40
2018-10-01T17:02:20.462Z,1.70
2018-10-01T17:04:50.193Z,1.70
2018-10-01T17:07:23.411Z,1.90
2018-10-01T17:09:52.993Z,1.70
2018-10-01T17:12:22.824Z,1.70
2018-10-01T17:14:52.448Z,1.37
2018-10-01T17:17:22.122Z,1.97
2018-10-01T17:19:51.965Z,1.70
2018-10-01T17:22:22.408Z,2.27
2018-10-01T17:24:52.002Z,2.13
2018-10-01T17:27:21.826Z,1.97
2018-10-01T17:29:52.088Z,2.30
2018-10-01T17:32:21.910Z,3.12
2018-10-01T17:34:51.627Z,1.80
2018-10-01T17:37:21.181Z,2.90
2018-10-01T17:39:50.799Z,1.90
2018-10-01T17:42:20.580Z,3.25
2018-10-01T17:44:50.206Z,2.80
2018-10-01T17:47:19.871Z,4.43
2018-10-01T17:49:49.629Z,3.00
2018-10-01T17:52:19.289Z,3.20
2018-10-01T17:54:48.923Z,2.83
2018-10-01T17:57:18.757Z,2.37
2018-10-01T17:59:48.403Z,2.13
2018-10-01T18:02:18.489Z,2.20
2018-10-01T18:04:48.058Z,2.13
2018-10-01T18:07:17.669Z,2.13
2018-10-01T18:09:47.354Z,1.93
2018-10-01T18:12:17.193Z,2.00
2018-10-01T18:14:46.728Z,1.77
2018-10-01T18:17:16.339Z,2.10
2018-10-01T18:19:46.173Z,2.57
2018-10-01T18:22:15.763Z,2.43
2018-10-01T18:24:45.329Z,3.42
2018-10-01T18:27:16.009Z,2.10
2018-10-01T18:29:45.722Z,2.97
2018-10-01T18:32:15.430Z,2.08
2018-10-01T18:34:44.911Z,2.17
2018-10-01T18:37:14.592Z,2.60
2018-10-01T18:39:44.399Z,2.00
2018-10-01T18:42:14.052Z,1.72
2018-10-01T18:44:44.072Z,2.70
2018-10-01T18:47:13.763Z,2.20
2018-10-01T18:49:43.816Z,2.77
2018-10-01T18:52:13.394Z,3.53
2018-10-01T18:54:42.994Z,2.77
2018-10-01T18:57:12.861Z,2.13
2018-10-01T18:59:43.649Z,2.70
2018-10-01T19:02:13.308Z,2.73
2018-10-01T19:04:43.167Z,2.90
2018-10-01T19:07:12.836Z,3.80
2018-10-01T19:09:42.535Z,3.80
2018-10-01T19:12:12.222Z,2.47
2018-10-01T19:14:42.223Z,2.37
2018-10-01T19:17:12.395Z,2.03
2018-10-01T19:19:42.130Z,2.20
2018-10-01T19:22:12.266Z,1.42
2018-10-01T19:24:42.240Z,1.63
2018-10-01T19:27:13.879Z,2.05
2018-10-01T19:29:43.486Z,2.50
2018-10-01T19:32:13.141Z,2.10
2018-10-01T19:34:42.915Z,2.37
2018-10-01T19:37:12.597Z,2.08
2018-10-01T19:39:42.248Z,2.47
2018-10-01T19:42:12.041Z,2.83
2018-10-01T19:44:41.789Z,2.60
2018-10-01T19:47:11.572Z,1.98
2018-10-01T19:49:41.145Z,2.17
2018-10-01T19:52:11.467Z,2.50
2018-10-01T19:54:41.027Z,2.20
2018-10-01T19:57:11.245Z,2.08
2018-10-01T19:59:40.874Z,2.50
2018-10-01T20:02:10.469Z,2.33
2018-10-01T20:04:40.050Z,1.83
2018-10-01T20:07:09.883Z,2.00
2018-10-01T20:09:43.480Z,1.80
2018-10-01T20:12:14.829Z,2.00
2018-10-01T20:14:45.408Z,1.40
2018-10-01T20:17:15.038Z,1.90
2018-10-01T20:19:44.668Z,2.03
2018-10-01T20:22:14.882Z,1.77
2018-10-01T20:24:44.502Z,2.07
2018-10-01T20:27:14.342Z,1.50
2018-10-01T20:29:44.023Z,1.70
2018-10-01T20:32:13.669Z,2.00
2018-10-01T20:34:43.462Z,2.20
2018-10-01T20:37:13.087Z,2.10
2018-10-01T20:39:42.868Z,1.80
2018-10-01T20:42:12.474Z,1.90
2018-10-01T20:44:43.402Z,2.70
2018-10-01T20:47:13.487Z,2.20
2018-10-01T20:49:43.161Z,2.07
2018-10-01T20:52:12.883Z,1.87
2018-10-01T20:54:42.404Z,2.12
2018-10-01T20:57:11.996Z,2.00
2018-10-01T20:59:41.568Z,2.30
2018-10-01T21:02:11.198Z,2.22
2018-10-01T21:04:41.020Z,3.07
2018-10-01T21:07:10.602Z,1.87
2018-10-01T21:09:40.450Z,1.70
2018-10-01T21:12:10.106Z,2.13
2018-10-01T21:14:39.741Z,1.83
2018-10-01T21:17:12.638Z,2.17
2018-10-01T21:19:45.265Z,2.13
2018-10-01T21:22:14.904Z,1.87
2018-10-01T21:24:44.561Z,2.72
2018-10-01T21:27:14.249Z,2.00
2018-10-01T21:29:43.777Z,2.23
2018-10-01T21:32:13.382Z,2.27
2018-10-01T21:34:43.054Z,2.50
2018-10-01T21:37:12.837Z,2.73
2018-10-01T21:40:09.798Z,4.50
2018-10-01T21:42:39.706Z,4.50
2018-10-01T21:45:10.973Z,3.75
2018-10-01T21:47:40.558Z,4.30
2018-10-01T21:50:10.273Z,3.47
2018-10-01T21:52:39.972Z,2.70
2018-10-01T21:55:09.961Z,2.73
2018-10-01T21:57:39.580Z,2.80
2018-10-01T22:00:11.073Z,2.23
2018-10-01T22:02:40.751Z,1.93
2018-10-01T22:05:10.458Z,2.30
2018-10-01T22:07:40.118Z,2.17
2018-10-01T22:10:09.832Z,2.30
2018-10-01T22:12:39.449Z,2.50
2018-10-01T22:15:09.177Z,2.00
2018-10-01T22:17:38.858Z,2.03
2018-10-01T22:20:08.827Z,1.90
2018-10-01T22:22:38.406Z,1.97
2018-10-01T22:25:08.051Z,2.30
2018-10-01T22:27:37.613Z,2.43
2018-10-01T22:30:08.702Z,2.50
2018-10-01T22:32:38.285Z,2.47
2018-10-01T22:35:09.107Z,2.57
2018-10-01T22:37:38.782Z,2.55
2018-10-01T22:40:08.638Z,3.30
2018-10-01T22:42:38.349Z,2.33
2018-10-01T22:45:07.984Z,2.70
2018-10-01T22:47:37.635Z,2.47
2018-10-01T22:50:07.517Z,2.70
2018-10-01T22:52:37.122Z,2.43
2018-10-01T22:55:07.762Z,2.75
2018-10-01T22:57:37.427Z,1.97
2018-10-01T23:00:07.426Z,2.33
2018-10-01T23:02:37.128Z,2.00
2018-10-01T23:05:07.078Z,2.10
2018-10-01T23:07:36.752Z,2.03
2018-10-01T23:10:06.538Z,2.08
2018-10-01T23:12:36.157Z,3.37
2018-10-01T23:15:06.429Z,2.03
2018-10-01T23:17:36.230Z,2.20
2018-10-01T23:20:06.990Z,2.50
2018-10-01T23:22:36.820Z,3.23
2018-10-01T23:25:06.624Z,2.10
2018-10-01T23:27:36.208Z,1.70
2018-10-01T23:30:06.736Z,1.98
2018-10-01T23:32:36.318Z,2.10
2018-10-01T23:35:06.059Z,2.00
2018-10-01T23:37:35.589Z,2.30
2018-10-01T23:40:05.616Z,2.53
2018-10-01T23:42:35.311Z,3.10
2018-10-01T23:45:05.276Z,2.27
2018-10-01T23:47:34.859Z,2.40
2018-10-01T23:50:04.640Z,2.37
2018-10-01T23:52:34.369Z,1.87
2018-10-01T23:55:04.064Z,1.97
2018-10-01T23:57:40.884Z,2.63
